Time;durP1;ratioP1;P1;durP2;ratioP2;P2;SDS_P1;SDS_P2;PMS_P1;PMS_P2;Temp;Humidity;BMP_temperature;BMP_pressure;BME280_temperature;BME280_humidity;BME280_pressure;Samples;Min_cycle;Max_cycle;Signal;HPM_P1;HPM_P2
2021/06/01 00:01:34;;;;;;;7.45;6.75;;;5.40;99.90;;;;;;5033884;28;20042;-90
2021/06/01 00:04:01;;;;;;;7.22;6.28;;;5.40;99.90;;;;;;5016344;28;20060;-89
2021/06/01 00:06:29;;;;;;;7.53;6.93;;;5.30;99.90;;;;;;5017073;28;20049;-90
2021/06/01 00:08:56;;;;;;;7.50;6.85;;;5.30;99.90;;;;;;5016329;28;20053;-90
2021/06/01 00:11:23;;;;;;;8.32;6.95;;;5.20;99.90;;;;;;5016552;28;20049;-90
2021/06/01 00:13:50;;;;;;;8.05;7.25;;;5.10;99.90;;;;;;5016339;28;20232;-90
2021/06/01 00:16:16;;;;;;;11.25;7.55;;;5.10;99.90;;;;;;5015706;28;20057;-90
2021/06/01 00:18:44;;;;;;;8.68;7.32;;;5.00;99.90;;;;;;5016153;28;20054;-90
2021/06/01 00:21:12;;;;;;;8.68;7.63;;;5.00;99.90;;;;;;5016541;28;20056;-90
2021/06/01 00:23:39;;;;;;;9.05;8.20;;;5.00;99.90;;;;;;5016531;28;20413;-90
2021/06/01 00:26:08;;;;;;;9.57;7.38;;;5.00;99.90;;;;;;5016300;28;20053;-90
2021/06/01 00:28:36;;;;;;;7.97;7.28;;;5.00;99.90;;;;;;5033318;28;20045;-90
2021/06/01 00:31:03;;;;;;;9.25;8.30;;;5.00;99.90;;;;;;5016303;28;20054;-90
2021/06/01 00:33:31;;;;;;;14.50;8.45;;;5.00;99.90;;;;;;5033455;28;20073;-90
2021/06/01 00:35:58;;;;;;;9.13;8.23;;;4.90;99.90;;;;;;5033382;28;20129;-90
2021/06/01 00:38:25;;;;;;;8.95;8.05;;;4.90;99.90;;;;;;5016036;28;20053;-90
2021/06/01 00:40:52;;;;;;;9.98;8.98;;;4.80;99.90;;;;;;5033155;28;20055;-90
2021/06/01 00:43:19;;;;;;;9.88;8.32;;;4.80;99.90;;;;;;5016071;28;20417;-90
2021/06/01 00:45:46;;;;;;;11.05;8.13;;;4.80;99.90;;;;;;5015880;28;20050;-89
2021/06/01 00:48:13;;;;;;;8.38;7.68;;;4.70;99.90;;;;;;5016133;28;20111;-90
2021/06/01 00:50:40;;;;;;;8.68;7.60;;;4.60;99.90;;;;;;5016064;28;20049;-90
2021/06/01 00:53:08;;;;;;;9.57;7.45;;;4.50;99.90;;;;;;5021098;28;20108;-90
2021/06/01 00:55:35;;;;;;;10.10;8.65;;;4.50;99.90;;;;;;5015991;28;20058;-90
2021/06/01 00:58:03;;;;;;;8.82;7.93;;;4.40;99.90;;;;;;5015985;28;20053;-90
2021/06/01 01:03:16;;;;;;;9.75;7.85;;;4.30;99.90;;;;;;5032921;28;20080;-90
2021/06/01 01:05:49;;;;;;;9.27;8.02;;;4.30;99.90;;;;;;5015824;28;20050;-90
2021/06/01 01:08:45;;;;;;;9.82;8.82;;;4.30;99.90;;;;;;5018191;28;20537;-90
2021/06/01 01:11:34;;;;;;;11.02;8.73;;;4.40;99.90;;;;;;5036670;28;20055;-90
2021/06/01 01:14:07;;;;;;;10.07;8.75;;;4.40;99.90;;;;;;5019409;28;20072;-89
2021/06/01 01:16:35;;;;;;;9.35;8.13;;;4.40;99.90;;;;;;5019176;28;20413;-90
2021/06/01 01:19:12;;;;;;;9.23;8.32;;;4.50;99.90;;;;;;5036388;28;20057;-90
2021/06/01 01:21:48;;;;;;;11.00;8.23;;;4.40;99.90;;;;;;5019236;28;20128;-90
2021/06/01 01:24:20;;;;;;;8.80;7.90;;;4.50;99.90;;;;;;5018994;28;20057;-90
2021/06/01 01:27:00;;;;;;;10.20;8.15;;;4.60;99.90;;;;;;5019149;28;20049;-90
2021/06/01 01:29:40;;;;;;;8.43;7.38;;;4.60;99.90;;;;;;5019079;28;20414;-90
2021/06/01 01:32:17;;;;;;;8.57;7.78;;;4.70;99.90;;;;;;5036348;28;20051;-90
2021/06/01 01:34:45;;;;;;;8.00;7.20;;;4.70;99.90;;;;;;5018627;28;20052;-90
2021/06/01 01:37:11;;;;;;;8.15;7.35;;;4.60;99.90;;;;;;5036316;28;20401;-90
2021/06/01 01:39:45;;;;;;;8.93;8.00;;;4.70;99.90;;;;;;5018645;28;20091;-90
2021/06/01 01:42:15;;;;;;;10.90;7.40;;;4.60;99.90;;;;;;5018831;28;20045;-90
2021/06/01 01:44:51;;;;;;;7.72;7.05;;;4.40;99.90;;;;;;5036340;28;20093;-90
2021/06/01 01:50:07;;;;;;;12.67;7.50;;;4.30;99.90;;;;;;5036039;28;20069;-90
2021/06/01 01:52:39;;;;;;;10.90;7.53;;;4.10;99.90;;;;;;5036445;28;20298;-90
2021/06/01 01:55:09;;;;;;;13.68;9.02;;;3.90;99.90;;;;;;5018608;28;20071;-90
2021/06/01 01:57:37;;;;;;;9.43;8.52;;;3.90;99.90;;;;;;5035868;28;20061;-90
2021/06/01 02:00:10;;;;;;;8.90;7.90;;;3.90;99.90;;;;;;5018270;28;20080;-89
2021/06/01 02:02:38;;;;;;;10.83;8.47;;;3.90;99.90;;;;;;5018211;28;20408;-89
2021/06/01 02:05:10;;;;;;;9.38;7.57;;;3.90;99.90;;;;;;5018188;28;20053;-89
2021/06/01 02:07:37;;;;;;;10.38;8.63;;;3.90;99.90;;;;;;5018097;28;20049;-90
2021/06/01 02:10:10;;;;;;;12.73;7.93;;;3.90;99.90;;;;;;5022778;28;20055;-89
2021/06/01 02:12:37;;;;;;;11.02;8.85;;;3.80;99.90;;;;;;5035917;28;20055;-89
2021/06/01 02:15:07;;;;;;;9.75;8.23;;;3.70;99.90;;;;;;5035314;28;20637;-90
2021/06/01 02:17:33;;;;;;;14.60;9.20;;;3.70;99.90;;;;;;5017777;28;20059;-89
2021/06/01 02:20:01;;;;;;;10.13;8.80;;;3.60;99.90;;;;;;5017134;28;20065;-90
2021/06/01 02:23:47;;;;;;;12.20;9.05;;;3.70;99.90;;;;;;5018202;28;20071;-89
2021/06/01 02:25:36;;;;;;;9.20;8.35;;;3.80;99.90;;;;;;5035207;28;20053;-89
2021/06/01 02:28:27;;;;;;;12.60;8.52;;;3.80;99.90;;;;;;5035546;28;20061;-89
2021/06/01 02:31:03;;;;;;;13.30;9.73;;;3.80;99.90;;;;;;5018161;28;20050;-89
2021/06/01 02:33:36;;;;;;;11.40;9.52;;;3.80;99.90;;;;;;5017891;28;20555;-89
2021/06/01 02:36:04;;;;;;;15.38;9.32;;;3.80;99.90;;;;;;5018239;28;20132;-89
2021/06/01 02:38:32;;;;;;;11.65;9.32;;;3.70;99.90;;;;;;5035172;28;20124;-89
2021/06/01 02:41:04;;;;;;;9.63;8.65;;;3.60;99.90;;;;;;5017868;28;20148;-89
2021/06/01 02:43:31;;;;;;;9.40;8.38;;;3.60;99.90;;;;;;5017560;28;20050;-89
2021/06/01 02:46:00;;;;;;;10.65;9.63;;;3.60;99.90;;;;;;5034848;28;20091;-89
2021/06/01 02:48:27;;;;;;;10.50;8.90;;;3.50;99.90;;;;;;5034757;28;20132;-89
2021/06/01 02:51:14;;;;;;;10.30;9.20;;;3.50;99.90;;;;;;5034740;28;20452;-89
2021/06/01 02:53:52;;;;;;;12.32;8.43;;;3.50;99.90;;;;;;5017496;28;20046;-89
2021/06/01 02:56:20;;;;;;;12.00;10.10;;;3.50;99.90;;;;;;5004583;28;20438;-89
2021/06/01 02:58:49;;;;;;;11.52;9.55;;;3.40;99.90;;;;;;4997280;28;20050;-89
2021/06/01 03:01:17;;;;;;;9.85;8.85;;;3.40;99.90;;;;;;4997577;28;20048;-89
2021/06/01 03:03:46;;;;;;;9.50;8.38;;;3.30;99.90;;;;;;5015007;28;20108;-89
2021/06/01 03:06:13;;;;;;;11.73;9.38;;;3.20;99.90;;;;;;4997891;28;20049;-90
2021/06/01 03:08:40;;;;;;;9.98;9.05;;;3.10;99.90;;;;;;4997440;28;20042;-90
2021/06/01 03:11:07;;;;;;;10.73;9.63;;;3.10;99.90;;;;;;4997143;28;20521;-90
2021/06/01 03:13:34;;;;;;;11.13;10.02;;;3.20;99.90;;;;;;4997600;28;20405;-90
2021/06/01 03:16:01;;;;;;;14.95;9.40;;;3.20;99.90;;;;;;5014703;28;20046;-89
2021/06/01 03:18:29;;;;;;;11.98;9.60;;;3.20;99.90;;;;;;4997261;28;20465;-90
2021/06/01 03:20:56;;;;;;;9.43;8.45;;;3.20;99.90;;;;;;4997120;28;20068;-90
2021/06/01 03:23:23;;;;;;;15.50;8.90;;;3.10;99.90;;;;;;5014609;28;20050;-90
2021/06/01 03:25:51;;;;;;;10.77;9.13;;;3.20;99.90;;;;;;4997487;28;20413;-88
2021/06/01 03:28:19;;;;;;;12.23;8.68;;;3.20;99.90;;;;;;5016120;28;20052;-90
2021/06/01 03:30:48;;;;;;;12.77;10.27;;;3.10;99.90;;;;;;4997425;28;20120;-90
2021/06/01 03:33:15;;;;;;;10.15;9.18;;;3.10;99.90;;;;;;4997470;28;20053;-90
2021/06/01 03:35:43;;;;;;;13.45;10.27;;;3.00;99.90;;;;;;4996999;28;20060;-90
2021/06/01 03:38:12;;;;;;;12.35;10.68;;;3.10;99.90;;;;;;5014332;28;20133;-89
2021/06/01 03:40:39;;;;;;;11.23;10.02;;;3.10;99.90;;;;;;4996853;28;20056;-90
2021/06/01 03:43:07;;;;;;;12.60;10.95;;;3.10;99.90;;;;;;4997225;28;20406;-89
2021/06/01 03:45:34;;;;;;;13.85;11.18;;;3.10;99.90;;;;;;4997207;28;20478;-89
2021/06/01 03:48:01;;;;;;;14.55;11.48;;;3.20;99.90;;;;;;5014342;28;20056;-88
2021/06/01 03:50:28;;;;;;;13.93;11.00;;;3.20;99.90;;;;;;4996868;28;20046;-89
2021/06/01 03:52:56;;;;;;;14.27;12.52;;;3.20;99.90;;;;;;4997093;28;20104;-90
2021/06/01 03:55:23;;;;;;;13.95;11.48;;;3.30;99.90;;;;;;5001547;28;20140;-89
2021/06/01 03:57:50;;;;;;;14.38;11.80;;;3.30;99.90;;;;;;5033833;28;20053;-89
2021/06/01 04:00:24;;;;;;;15.93;12.73;;;3.40;99.90;;;;;;5016318;28;20053;-89
2021/06/01 04:02:50;;;;;;;;;;;3.40;99.90;;;;;;5016880;28;20042;-89
2021/06/01 04:05:22;;;;;;;13.60;11.18;;;3.50;99.90;;;;;;5017111;28;19944;-89
2021/06/01 04:07:49;;;;;;;11.95;10.75;;;3.70;99.90;;;;;;5016304;28;20132;-89
2021/06/01 04:10:16;;;;;;;14.68;11.05;;;3.80;99.90;;;;;;5034060;28;20049;-89
2021/06/01 04:12:44;;;;;;;14.25;10.68;;;3.80;99.90;;;;;;5016223;28;20405;-89
2021/06/01 04:15:11;;;;;;;12.55;11.18;;;3.90;99.90;;;;;;5016719;28;20050;-89
2021/06/01 04:17:38;;;;;;;14.35;10.65;;;4.00;99.90;;;;;;5016858;28;20096;-89
2021/06/01 04:20:06;;;;;;;13.77;10.63;;;4.10;99.90;;;;;;5016081;28;20092;-89
2021/06/01 04:22:33;;;;;;;15.73;11.07;;;4.20;99.90;;;;;;5016273;28;20069;-89
2021/06/01 04:25:00;;;;;;;15.48;11.95;;;4.20;99.90;;;;;;5016568;28;20391;-89
2021/06/01 04:27:27;;;;;;;18.15;12.00;;;4.10;99.90;;;;;;5033707;28;20061;-90
2021/06/01 04:29:54;;;;;;;14.32;12.35;;;4.10;99.90;;;;;;5033724;28;20057;-89
2021/06/01 04:32:21;;;;;;;16.60;12.63;;;4.20;99.90;;;;;;5016258;28;20052;-89
2021/06/01 04:34:48;;;;;;;18.20;12.70;;;4.30;99.90;;;;;;5015980;28;20088;-88
2021/06/01 04:37:15;;;;;;;18.42;12.57;;;4.40;99.90;;;;;;5016356;28;20502;-89
2021/06/01 04:39:43;;;;;;;17.77;14.48;;;4.50;99.90;;;;;;5034078;28;20045;-89
2021/06/01 04:42:10;;;;;;;18.17;14.02;;;4.70;99.90;;;;;;5035586;28;20129;-89
2021/06/01 04:44:37;;;;;;;17.10;13.20;;;4.80;99.90;;;;;;5023044;28;20053;-88
2021/06/01 04:47:04;;;;;;;14.60;13.05;;;4.90;99.90;;;;;;5022988;28;20120;-89
2021/06/01 04:49:31;;;;;;;14.70;11.52;;;5.10;99.90;;;;;;5019672;28;20052;-89
2021/06/01 04:51:57;;;;;;;16.65;12.38;;;5.30;99.90;;;;;;5019852;28;20058;-88
2021/06/01 04:54:24;;;;;;;13.10;11.48;;;5.50;99.90;;;;;;5037108;28;20110;-89
2021/06/01 04:56:51;;;;;;;12.52;11.20;;;5.70;99.90;;;;;;5019297;28;20148;-89
2021/06/01 04:59:18;;;;;;;12.68;11.38;;;5.80;99.90;;;;;;4999612;28;20046;-88
2021/06/01 05:01:44;;;;;;;14.60;12.98;;;5.90;99.90;;;;;;4999707;28;20077;-90
2021/06/01 05:04:11;;;;;;;13.18;11.60;;;6.20;99.90;;;;;;4999828;28;20069;-89
2021/06/01 05:06:38;;;;;;;10.63;9.57;;;6.50;99.90;;;;;;4999722;28;20465;-89
2021/06/01 05:09:05;;;;;;;12.63;11.02;;;6.70;99.90;;;;;;4999468;28;20154;-89
2021/06/01 05:11:32;;;;;;;11.50;8.90;;;7.00;99.90;;;;;;5017227;28;20056;-89
2021/06/01 05:13:59;;;;;;;8.32;6.20;;;7.70;99.90;;;;;;4999440;28;20458;-89
2021/06/01 05:16:26;;;;;;;5.25;4.75;;;8.90;99.90;;;;;;5016542;28;20054;-88
2021/06/01 05:18:53;;;;;;;6.10;3.78;;;10.20;99.90;;;;;;5016593;28;20049;-88
2021/06/01 05:21:20;;;;;;;3.80;3.30;;;12.10;99.90;;;;;;4999185;28;20085;-89
2021/06/01 05:23:47;;;;;;;11.10;3.30;;;13.60;99.90;;;;;;4999415;28;20068;-89
2021/06/01 05:26:14;;;;;;;7.63;2.80;;;14.90;99.90;;;;;;4999018;28;20391;-90
2021/06/01 05:28:40;;;;;;;5.72;2.20;;;16.50;99.90;;;;;;5016597;28;20042;-87
2021/06/01 05:31:20;;;;;;;2.30;2.10;;;17.70;99.90;;;;;;5016460;28;20141;-90
2021/06/01 05:33:54;;;;;;;5.78;2.75;;;18.40;99.90;;;;;;4999168;28;20418;-87
2021/06/01 05:36:21;;;;;;;2.65;2.40;;;18.20;99.10;;;;;;5016022;28;20137;-88
2021/06/01 05:38:48;;;;;;;2.25;2.15;;;18.50;98.90;;;;;;4999101;28;20050;-88
2021/06/01 05:41:15;;;;;;;5.05;2.15;;;19.00;96.40;;;;;;4998979;28;20494;-87
2021/06/01 05:43:42;;;;;;;2.17;2.00;;;19.20;96.20;;;;;;5016389;28;20478;-88
2021/06/01 05:46:09;;;;;;;5.55;1.90;;;19.30;93.20;;;;;;5016518;28;20058;-88
2021/06/01 05:48:36;;;;;;;2.58;2.22;;;20.40;90.30;;;;;;4999032;28;20046;-89
2021/06/01 05:51:03;;;;;;;2.15;1.90;;;20.80;87.00;;;;;;4999025;28;20478;-88
2021/06/01 05:53:30;;;;;;;10.88;2.30;;;21.60;80.20;;;;;;4998878;28;20045;-89
2021/06/01 05:55:58;;;;;;;5.40;2.42;;;20.90;81.60;;;;;;5008516;28;20045;-88
2021/06/01 05:58:25;;;;;;;3.88;2.28;;;21.40;79.70;;;;;;5017795;28;20053;-88
2021/06/01 06:00:52;;;;;;;5.40;2.35;;;22.80;74.30;;;;;;5018451;28;20067;-88
2021/06/01 06:03:19;;;;;;;9.50;2.42;;;23.40;73.30;;;;;;5043871;28;20049;-89
2021/06/01 06:05:46;;;;;;;1.95;1.83;;;23.80;69.70;;;;;;5038118;28;20054;-89
2021/06/01 06:08:16;;;;;;;6.35;2.00;;;24.60;66.50;;;;;;5034353;28;20041;-89
2021/06/01 06:10:45;;;;;;;3.95;2.10;;;24.90;62.60;;;;;;5017754;28;20480;-88
2021/06/01 06:13:12;;;;;;;14.30;2.35;;;24.70;62.10;;;;;;5031134;28;20042;-89
2021/06/01 06:15:40;;;;;;;10.45;2.28;;;24.70;61.60;;;;;;5009653;28;20120;-89
2021/06/01 06:18:13;;;;;;;9.30;2.15;;;24.20;62.60;;;;;;4998142;28;20053;-90
2021/06/01 06:20:40;;;;;;;23.63;2.92;;;24.10;62.10;;;;;;4997520;28;20050;-88
2021/06/01 06:23:07;;;;;;;9.75;2.03;;;24.90;62.50;;;;;;4998278;28;20048;-88
2021/06/01 06:25:34;;;;;;;9.57;4.32;;;24.60;62.60;;;;;;5014331;28;20049;-88
2021/06/01 06:28:01;;;;;;;4.95;3.15;;;25.00;59.30;;;;;;4997519;28;20046;-89
2021/06/01 06:30:27;;;;;;;10.23;2.03;;;25.50;58.70;;;;;;4998561;28;20042;-88
2021/06/01 06:32:55;;;;;;;5.28;2.30;;;25.70;58.70;;;;;;4998059;28;20137;-88
2021/06/01 06:35:21;;;;;;;4.05;1.80;;;25.70;58.10;;;;;;4998138;28;20151;-89
2021/06/01 06:37:48;;;;;;;3.45;1.70;;;25.70;58.10;;;;;;5015596;28;20140;-88
2021/06/01 06:40:16;;;;;;;8.18;2.10;;;25.40;58.30;;;;;;4998171;28;20060;-88
2021/06/01 06:42:43;;;;;;;7.07;2.05;;;26.00;57.50;;;;;;4997852;28;20056;-88
2021/06/01 06:45:13;;;;;;;7.45;1.90;;;26.40;57.20;;;;;;5008418;28;20045;-88
2021/06/01 06:50:22;;;;;;;6.85;1.83;;;27.40;56.70;;;;;;5020426;28;20136;-89
2021/06/01 06:52:50;;;;;;;4.50;1.63;;;27.50;55.50;;;;;;4996885;28;20081;-88
2021/06/01 06:55:18;;;;;;;4.63;2.22;;;28.60;54.40;;;;;;5014238;28;20564;-88
2021/06/01 06:57:45;;;;;;;17.02;2.20;;;29.00;53.00;;;;;;4997048;28;20045;-89
2021/06/01 07:00:13;;;;;;;7.88;2.00;;;30.00;52.10;;;;;;4996702;28;20060;-88
2021/06/01 07:02:42;;;;;;;3.58;1.65;;;31.30;49.90;;;;;;5012329;28;20124;-88
2021/06/01 07:05:16;;;;;;;4.50;1.67;;;32.50;47.30;;;;;;5015783;28;20112;-88
2021/06/01 07:07:43;;;;;;;2.22;1.35;;;32.40;46.60;;;;;;5016616;28;20304;-88
2021/06/01 07:10:12;;;;;;;7.68;1.80;;;31.00;47.80;;;;;;5016088;28;20065;-89
2021/06/01 07:12:42;;;;;;;6.45;1.67;;;31.40;47.70;;;;;;5016183;28;20111;-88
2021/06/01 07:15:23;;;;;;;3.55;1.83;;;31.30;47.00;;;;;;5016611;28;20056;-90
2021/06/01 07:17:55;;;;;;;2.60;1.83;;;30.50;46.60;;;;;;5017307;28;20136;-91
2021/06/01 07:20:22;;;;;;;7.53;1.55;;;31.30;47.30;;;;;;5021419;28;20042;-91
2021/06/01 07:22:48;;;;;;;7.13;1.67;;;31.00;46.10;;;;;;5024429;28;20049;-91
2021/06/01 07:25:17;;;;;;;2.60;1.90;;;32.00;46.70;;;;;;5016774;28;20050;-92
2021/06/01 07:27:44;;;;;;;3.53;1.63;;;31.70;45.30;;;;;;5016851;28;20050;-90
2021/06/01 07:30:12;;;;;;;4.60;1.50;;;31.00;47.90;;;;;;5025819;28;20483;-89
2021/06/01 07:32:39;;;;;;;6.30;1.90;;;30.60;47.20;;;;;;5013943;28;20049;-89
2021/06/01 07:35:06;;;;;;;2.85;1.60;;;31.40;48.00;;;;;;4996653;28;20077;-91
2021/06/01 07:37:33;;;;;;;6.25;2.00;;;33.20;45.70;;;;;;4996369;28;20046;-91
2021/06/01 07:40:00;;;;;;;5.35;1.60;;;32.80;46.00;;;;;;4996412;28;20132;-91
2021/06/01 07:42:26;;;;;;;3.25;1.58;;;32.10;44.60;;;;;;4996442;28;20052;-92
2021/06/01 07:44:53;;;;;;;3.45;1.67;;;33.30;45.60;;;;;;4995875;28;20056;-89
2021/06/01 07:47:20;;;;;;;4.43;1.50;;;32.50;45.90;;;;;;4996652;28;20046;-90
2021/06/01 07:49:47;;;;;;;3.00;1.45;;;33.10;45.40;;;;;;5013295;28;20481;-92
2021/06/01 07:52:14;;;;;;;6.30;1.73;;;32.10;46.90;;;;;;4996361;28;20050;-92
2021/06/01 07:54:40;;;;;;;3.13;1.50;;;31.60;46.80;;;;;;4998049;28;20065;-92
2021/06/01 07:57:07;;;;;;;4.25;2.42;;;32.10;45.80;;;;;;4996035;28;20613;-92
2021/06/01 07:59:34;;;;;;;2.08;1.55;;;32.20;45.30;;;;;;4996826;28;20470;-91
2021/06/01 08:02:01;;;;;;;3.25;1.40;;;32.80;44.10;;;;;;4996795;28;20052;-92
2021/06/01 08:04:28;;;;;;;1.83;1.67;;;32.40;41.60;;;;;;4997163;28;20100;-92
2021/06/01 08:07:00;;;;;;;1.60;1.50;;;32.00;41.70;;;;;;4996925;28;20169;-92
2021/06/01 08:09:27;;;;;;;3.67;1.60;;;32.00;42.30;;;;;;5003560;28;20475;-91
2021/06/01 08:11:53;;;;;;;2.47;1.30;;;32.70;43.00;;;;;;5004876;28;20042;-90
2021/06/01 08:14:20;;;;;;;4.57;1.42;;;33.80;41.80;;;;;;5008603;28;20613;-92
2021/06/01 08:16:47;;;;;;;1.50;1.40;;;33.20;40.30;;;;;;5005937;28;20053;-92
2021/06/01 08:19:21;;;;;;;1.40;1.30;;;32.70;42.10;;;;;;5017639;28;20046;-90
2021/06/01 08:24:34;;;;;;;2.30;1.30;;;32.40;41.70;;;;;;5037744;28;20075;-91
2021/06/01 08:27:01;;;;;;;1.98;1.33;;;32.20;39.70;;;;;;5020772;28;20059;-90
2021/06/01 08:29:28;;;;;;;1.30;0.98;;;30.90;39.40;;;;;;5020223;28;20116;-90
2021/06/01 08:31:55;;;;;;;3.28;1.50;;;31.50;38.80;;;;;;5020098;28;20053;-94
2021/06/01 08:34:22;;;;;;;2.45;1.35;;;31.40;41.00;;;;;;5021151;28;20132;-89
2021/06/01 08:36:49;;;;;;;3.50;2.03;;;30.90;41.60;;;;;;5020393;28;20140;-92
2021/06/01 08:39:23;;;;;;;3.22;1.13;;;31.80;37.30;;;;;;5034014;28;20057;-92
2021/06/01 08:41:51;;;;;;;1.15;1.00;;;31.40;37.80;;;;;;5030901;28;20144;-94
2021/06/01 08:44:18;;;;;;;1.48;1.35;;;31.40;36.90;;;;;;5022858;28;20053;-92
2021/06/01 08:46:49;;;;;;;1.77;1.17;;;29.70;38.50;;;;;;5022442;28;20109;-95
2021/06/01 08:49:18;;;;;;;2.42;1.08;;;30.20;41.00;;;;;;5019818;28;20068;-89
2021/06/01 08:51:46;;;;;;;1.33;1.23;;;32.40;41.10;;;;;;5020336;28;20049;-93
2021/06/01 08:54:13;;;;;;;4.72;1.30;;;34.20;39.60;;;;;;5021483;28;20049;-94
2021/06/01 08:56:40;;;;;;;6.97;1.73;;;33.30;38.40;;;;;;5019400;28;20141;-94
2021/06/01 08:59:09;;;;;;;4.20;1.20;;;34.40;37.70;;;;;;5019393;28;20113;-93
2021/06/01 09:01:36;;;;;;;2.00;1.00;;;34.70;37.70;;;;;;5020487;28;20113;-92
2021/06/01 09:04:11;;;;;;;4.50;1.60;;;34.80;36.60;;;;;;5021465;28;20107;-95
2021/06/01 09:06:57;;;;;;;5.35;1.70;;;34.20;37.40;;;;;;5020638;28;20549;-92
2021/06/01 09:09:48;;;;;;;2.15;1.13;;;33.70;37.00;;;;;;5019684;28;20107;-93
2021/06/01 09:15:33;;;;;;;1.58;1.00;;;33.00;37.80;;;;;;5036949;28;20115;-93
2021/06/01 09:21:16;;;;;;;3.38;1.17;;;32.20;37.50;;;;;;5036562;28;20451;-91
2021/06/01 09:23:51;;;;;;;1.05;1.00;;;33.10;37.10;;;;;;5021253;28;20053;-94
2021/06/01 09:29:17;;;;;;;1.23;1.13;;;33.90;34.70;;;;;;5036000;28;20117;-93
2021/06/01 09:31:44;;;;;;;2.33;1.10;;;33.20;36.30;;;;;;5021086;28;20055;-91
2021/06/01 09:34:22;;;;;;;5.40;1.35;;;33.50;35.30;;;;;;5021730;28;20048;-93
2021/06/01 09:36:48;;;;;;;3.00;1.45;;;34.00;35.60;;;;;;5021548;28;20069;-91
2021/06/01 09:39:23;;;;;;;4.05;1.05;;;33.20;35.50;;;;;;5022769;28;20128;-93
2021/06/01 09:41:50;;;;;;;5.00;0.95;;;32.80;35.80;;;;;;5019217;28;20053;-93
2021/06/01 09:44:16;;;;;;;1.70;0.80;;;34.80;36.70;;;;;;5018987;28;20485;-87
2021/06/01 09:46:46;;;;;;;2.30;1.25;;;35.50;33.40;;;;;;5017956;28;20482;-92
2021/06/01 09:49:13;;;;;;;3.88;1.27;;;35.70;32.70;;;;;;5021251;28;20057;-88
2021/06/01 09:51:42;;;;;;;1.25;1.13;;;34.90;33.90;;;;;;5018675;28;20061;-92
2021/06/01 09:54:43;;;;;;;6.45;1.00;;;36.60;33.40;;;;;;5025471;28;20080;-94
2021/06/01 09:57:22;;;;;;;1.50;0.98;;;34.20;34.00;;;;;;5039159;28;20060;-94
2021/06/01 10:00:18;;;;;;;2.53;1.08;;;33.50;35.00;;;;;;5049598;28;20073;-93
2021/06/01 10:02:54;;;;;;;7.10;1.42;;;34.20;34.10;;;;;;5020801;28;20057;-95
2021/06/01 10:05:27;;;;;;;1.58;1.02;;;32.90;32.10;;;;;;5021246;28;20049;-95
2021/06/01 10:07:58;;;;;;;3.78;1.10;;;33.30;33.50;;;;;;5022039;28;20068;-94
2021/06/01 10:10:25;;;;;;;7.78;1.80;;;32.60;33.80;;;;;;5021649;28;20092;-91
2021/06/01 10:12:57;;;;;;;7.15;1.13;;;32.50;34.20;;;;;;5020153;28;20057;-90
2021/06/01 10:15:27;;;;;;;1.65;0.90;;;33.90;34.20;;;;;;5034345;28;20136;-89
2021/06/01 10:18:04;;;;;;;0.90;0.90;;;36.30;32.50;;;;;;5021777;28;20059;-94
2021/06/01 10:20:33;;;;;;;5.68;1.05;;;36.90;33.10;;;;;;5020574;28;20049;-93
2021/06/01 10:23:05;;;;;;;4.22;1.33;;;36.00;30.90;;;;;;5020108;28;20049;-92
2021/06/01 10:25:32;;;;;;;0.77;0.75;;;34.70;32.40;;;;;;5018559;28;20145;-94
2021/06/01 10:28:04;;;;;;;4.45;1.13;;;35.20;33.80;;;;;;5021452;28;20073;-93
2021/06/01 10:30:34;;;;;;;0.93;0.80;;;34.00;32.60;;;;;;5019496;28;20084;-91
2021/06/01 10:33:04;;;;;;;2.67;1.08;;;34.60;34.80;;;;;;5019726;28;20116;-93
2021/06/01 10:35:39;;;;;;;3.33;0.98;;;36.40;34.00;;;;;;5021613;28;20117;-93
2021/06/01 10:50:29;;;;;;;2.08;1.33;;;32.40;35.00;;;;;;5036261;28;20129;-95
2021/06/01 10:53:18;;;;;;;1.95;1.00;;;33.70;36.00;;;;;;5025166;28;20045;-89
2021/06/01 10:55:55;;;;;;;2.58;1.00;;;33.60;35.10;;;;;;5019220;28;20058;-90
2021/06/01 10:58:29;;;;;;;1.63;1.13;;;32.70;34.50;;;;;;5021778;28;20128;-90
2021/06/01 11:04:21;;;;;;;3.45;0.93;;;33.00;34.20;;;;;;5037937;28;19928;-91
2021/06/01 11:06:59;;;;;;;2.58;1.10;;;33.70;33.00;;;;;;5018227;28;20112;-91
2021/06/01 11:09:33;;;;;;;1.05;0.95;;;34.60;33.80;;;;;;5019807;28;20080;-93
2021/06/01 11:12:12;;;;;;;1.00;1.00;;;34.30;34.40;;;;;;5019506;28;20056;-92
2021/06/01 11:14:39;;;;;;;0.93;0.90;;;34.20;34.80;;;;;;5019021;28;20076;-93
2021/06/01 11:17:06;;;;;;;1.55;1.10;;;35.40;35.00;;;;;;5036522;28;20085;-95
2021/06/01 11:19:56;;;;;;;0.98;0.90;;;33.80;34.90;;;;;;5024043;28;20128;-90
2021/06/01 11:22:35;;;;;;;1.20;1.10;;;33.40;34.80;;;;;;5019712;28;20136;-91
2021/06/01 11:33:23;;;;;;;2.58;1.27;;;32.10;34.90;;;;;;5034620;28;20056;-89
2021/06/01 11:35:55;;;;;;;2.90;1.08;;;32.50;36.30;;;;;;5020472;28;20496;-90
2021/06/01 11:38:32;;;;;;;0.95;0.95;;;31.00;35.40;;;;;;5020776;28;20054;-91
2021/06/01 11:43:31;;;;;;;1.65;0.60;;;29.50;36.10;;;;;;5039437;28;20425;-92
2021/06/01 11:51:23;;;;;;;2.13;1.05;;;28.50;37.70;;;;;;5038479;28;20072;-96
2021/06/01 11:53:53;;;;;;;1.25;1.15;;;27.70;39.20;;;;;;5022295;28;20117;-92
2021/06/01 11:57:03;;;;;;;2.90;1.15;;;27.60;39.90;;;;;;5023399;28;20073;-93
2021/06/01 12:13:19;;;;;;;2.47;1.00;;;26.90;41.20;;;;;;5034696;28;20045;-92
2021/06/01 12:18:45;;;;;;;2.35;1.00;;;26.70;40.90;;;;;;5035551;28;20072;-91
2021/06/01 12:21:24;;;;;;;1.23;1.02;;;26.70;43.10;;;;;;5020198;28;20550;-94
2021/06/01 12:24:02;;;;;;;3.47;1.10;;;26.40;42.30;;;;;;5018272;28;20052;-94
2021/06/01 12:26:42;;;;;;;1.45;1.10;;;26.40;41.20;;;;;;5016853;28;20073;-92
2021/06/01 12:32:29;;;;;;;1.02;0.98;;;26.50;42.10;;;;;;5034179;28;20049;-92
2021/06/01 13:12:25;;;;;;;2.83;1.20;;;24.20;42.80;;;;;;5005777;28;20504;-92
2021/06/01 13:20:29;;;;;;;0.90;0.90;;;24.30;42.20;;;;;;5037581;28;20429;-91
2021/06/01 13:39:41;;;;;;;4.53;1.20;;;24.30;44.50;;;;;;5036961;28;20057;-92
2021/06/01 13:51:27;;;;;;;1.45;1.30;;;25.00;43.40;;;;;;5037586;28;20041;-92
2021/06/01 13:55:07;;;;;;;3.85;1.20;;;25.20;43.80;;;;;;5039001;28;20042;-91
2021/06/01 13:56:16;;;;;;;3.05;1.50;;;25.70;44.10;;;;;;5040856;28;20074;-92
2021/06/01 14:01:36;;;;;;;2.28;1.40;;;25.70;45.80;;;;;;5016538;28;20046;-93
2021/06/01 14:09:53;;;;;;;4.57;1.70;;;25.10;45.50;;;;;;5016510;28;20046;-93
2021/06/01 14:15:37;;;;;;;2.10;1.50;;;24.90;47.50;;;;;;5016048;28;20080;-91
2021/06/01 14:21:09;;;;;;;3.45;1.52;;;24.80;47.40;;;;;;5017562;28;20054;-94
2021/06/01 14:32:22;;;;;;;1.85;1.48;;;25.60;48.70;;;;;;5016111;28;20068;-92
2021/06/01 15:10:19;;;;;;;2.25;2.05;;;23.20;54.30;;;;;;5016047;28;20045;-92
2021/06/01 15:29:57;;;;;;;2.83;1.50;;;22.50;53.40;;;;;;5014597;28;20045;-90
2021/06/01 15:54:21;;;;;;;1.85;1.70;;;22.40;56.90;;;;;;5015293;28;20138;-89
2021/06/01 17:03:10;;;;;;;3.20;2.42;;;21.80;65.00;;;;;;5037820;28;20055;-90
2021/06/01 17:03:50;;;;;;;4.22;2.00;;;21.40;73.20;;;;;;5037263;28;20045;-90
2021/06/01 17:06:21;;;;;;;3.17;2.17;;;21.40;69.90;;;;;;5019003;28;20049;-90
2021/06/01 17:11:30;;;;;;;3.80;2.10;;;21.30;70.30;;;;;;5037441;28;20056;-91
2021/06/01 17:13:59;;;;;;;4.78;2.65;;;21.20;70.50;;;;;;5035771;28;20080;-90
2021/06/01 17:16:43;;;;;;;2.85;2.08;;;21.20;71.20;;;;;;5019563;28;20128;-89
2021/06/01 17:35:58;;;;;;;4.25;2.40;;;20.70;87.20;;;;;;5036257;28;20049;-89
2021/06/01 17:38:26;;;;;;;4.05;2.50;;;20.60;87.00;;;;;;5019174;28;20147;-89
2021/06/01 17:40:57;;;;;;;3.42;2.50;;;20.50;88.00;;;;;;5036523;28;20049;-87
2021/06/01 17:43:30;;;;;;;3.58;2.35;;;20.40;91.20;;;;;;5019419;28;20042;-89
2021/06/01 17:45:58;;;;;;;2.70;2.30;;;20.30;92.60;;;;;;5018425;28;20045;-89
2021/06/01 17:48:43;;;;;;;2.95;2.20;;;20.20;93.00;;;;;;5020149;28;20045;-90
2021/06/01 17:51:11;;;;;;;2.38;2.17;;;20.10;93.50;;;;;;5051415;28;20100;-90
2021/06/01 17:53:45;;;;;;;2.30;2.10;;;20.10;93.80;;;;;;5019443;28;20137;-89
2021/06/01 17:56:17;;;;;;;3.47;2.35;;;20.00;98.90;;;;;;5018300;28;20581;-90
2021/06/01 17:58:44;;;;;;;2.60;1.98;;;19.90;99.20;;;;;;5018267;28;20049;-90
2021/06/01 18:01:13;;;;;;;2.50;2.05;;;19.70;99.90;;;;;;5020063;28;20045;-88
2021/06/01 18:03:54;;;;;;;4.90;2.50;;;19.60;99.90;;;;;;5036738;28;20414;-89
2021/06/01 18:06:33;;;;;;;2.72;2.30;;;19.40;99.90;;;;;;5036083;28;20128;-88
2021/06/01 18:11:56;;;;;;;4.13;2.42;;;19.00;99.90;;;;;;5036594;28;20053;-88
2021/06/01 19:51:22;;;;;;;5.30;3.45;;;14.30;99.90;;;;;;4991303;28;20050;-87
2021/06/01 19:53:50;;;;;;;4.32;4.03;;;14.20;99.90;;;;;;5008105;28;20053;-88
2021/06/01 19:56:18;;;;;;;4.90;3.92;;;14.10;99.90;;;;;;5014795;28;20057;-88
2021/06/01 19:58:47;;;;;;;8.63;4.65;;;14.00;99.90;;;;;;5015332;28;20045;-88
2021/06/01 20:01:15;;;;;;;9.43;4.28;;;13.90;99.90;;;;;;5015235;28;20057;-89
2021/06/01 20:03:42;;;;;;;7.10;3.95;;;13.90;99.90;;;;;;5015188;28;20058;-87
2021/06/01 20:06:10;;;;;;;7.40;3.83;;;13.80;99.90;;;;;;5015424;28;20046;-88